sensor_id;sensor_type;location;lat;lon;timestamp;pressure;altitude;pressure_sealevel;temperature;humidity
71778;BME280;59609;52.430;4.668;2024-01-06T00:00:27;100560.72;;;4.97;100.00
71778;BME280;59609;52.430;4.668;2024-01-06T00:02:53;100569.50;;;5.01;100.00
71778;BME280;59609;52.430;4.668;2024-01-06T00:05:18;100553.38;;;4.88;100.00
71778;BME280;59609;52.430;4.668;2024-01-06T00:07:44;100557.69;;;4.91;100.00
71778;BME280;59609;52.430;4.668;2024-01-06T00:10:09;100568.78;;;4.99;100.00
71778;BME280;59609;52.430;4.668;2024-01-06T00:12:34;100560.59;;;4.99;100.00
71778;BME280;59609;52.430;4.668;2024-01-06T00:15:00;100567.94;;;4.98;100.00
71778;BME280;59609;52.430;4.668;2024-01-06T00:17:25;100550.38;;;4.91;100.00
71778;BME280;59609;52.430;4.668;2024-01-06T00:19:51;100565.34;;;4.97;100.00
71778;BME280;59609;52.430;4.668;2024-01-06T00:22:20;100572.53;;;4.98;100.00
71778;BME280;59609;52.430;4.668;2024-01-06T00:24:45;100577.28;;;4.96;100.00
71778;BME280;59609;52.430;4.668;2024-01-06T00:27:11;100575.81;;;4.92;100.00
71778;BME280;59609;52.430;4.668;2024-01-06T00:29:39;100581.66;;;4.87;100.00
71778;BME280;59609;52.430;4.668;2024-01-06T00:32:05;100583.56;;;4.87;100.00
71778;BME280;59609;52.430;4.668;2024-01-06T00:34:30;100584.81;;;4.83;100.00
71778;BME280;59609;52.430;4.668;2024-01-06T00:36:55;100589.25;;;4.84;100.00
71778;BME280;59609;52.430;4.668;2024-01-06T00:39:24;100593.72;;;4.85;100.00
71778;BME280;59609;52.430;4.668;2024-01-06T00:41:49;100563.75;;;4.64;100.00
71778;BME280;59609;52.430;4.668;2024-01-06T00:44:15;100584.34;;;4.78;100.00
71778;BME280;59609;52.430;4.668;2024-01-06T00:46:40;100565.75;;;4.62;100.00
71778;BME280;59609;52.430;4.668;2024-01-06T00:49:05;100591.81;;;4.76;100.00
71778;BME280;59609;52.430;4.668;2024-01-06T00:51:31;100567.91;;;4.58;100.00
71778;BME280;59609;52.430;4.668;2024-01-06T00:53:56;100607.47;;;4.74;100.00
71778;BME280;59609;52.430;4.668;2024-01-06T00:56:22;100600.97;;;4.65;100.00
71778;BME280;59609;52.430;4.668;2024-01-06T00:58:47;100607.34;;;4.75;100.00
71778;BME280;59609;52.430;4.668;2024-01-06T01:01:13;100596.38;;;4.65;100.00
71778;BME280;59609;52.430;4.668;2024-01-06T01:03:38;100605.59;;;4.74;100.00
71778;BME280;59609;52.430;4.668;2024-01-06T01:06:04;100609.84;;;4.67;100.00
71778;BME280;59609;52.430;4.668;2024-01-06T01:08:29;100611.00;;;4.64;100.00
71778;BME280;59609;52.430;4.668;2024-01-06T01:10:56;100625.84;;;4.72;100.00
71778;BME280;59609;52.430;4.668;2024-01-06T01:13:22;100618.19;;;4.65;100.00
71778;BME280;59609;52.430;4.668;2024-01-06T01:15:47;100624.66;;;4.64;100.00
71778;BME280;59609;52.430;4.668;2024-01-06T01:18:13;100633.56;;;4.66;100.00
71778;BME280;59609;52.430;4.668;2024-01-06T01:20:38;100637.69;;;4.61;100.00
71778;BME280;59609;52.430;4.668;2024-01-06T01:23:03;100633.75;;;4.54;100.00
71778;BME280;59609;52.430;4.668;2024-01-06T01:25:29;100644.00;;;4.61;100.00
71778;BME280;59609;52.430;4.668;2024-01-06T01:27:54;100653.19;;;4.60;100.00
71778;BME280;59609;52.430;4.668;2024-01-06T01:30:19;100649.63;;;4.60;100.00
71778;BME280;59609;52.430;4.668;2024-01-06T01:32:45;100636.91;;;4.49;100.00
71778;BME280;59609;52.430;4.668;2024-01-06T01:35:10;100652.63;;;4.57;100.00
71778;BME280;59609;52.430;4.668;2024-01-06T01:37:35;100656.19;;;4.57;100.00
71778;BME280;59609;52.430;4.668;2024-01-06T01:40:01;100663.38;;;4.58;100.00
71778;BME280;59609;52.430;4.668;2024-01-06T01:42:26;100672.75;;;4.65;100.00
71778;BME280;59609;52.430;4.668;2024-01-06T01:44:51;100666.00;;;4.60;100.00
71778;BME280;59609;52.430;4.668;2024-01-06T01:47:17;100669.09;;;4.55;100.00
71778;BME280;59609;52.430;4.668;2024-01-06T01:49:45;100677.03;;;4.58;100.00
71778;BME280;59609;52.430;4.668;2024-01-06T01:52:13;100680.47;;;4.60;100.00
71778;BME280;59609;52.430;4.668;2024-01-06T01:54:40;100665.16;;;4.48;100.00
71778;BME280;59609;52.430;4.668;2024-01-06T01:57:06;100693.28;;;4.60;100.00
71778;BME280;59609;52.430;4.668;2024-01-06T01:59:32;100688.09;;;4.57;100.00
71778;BME280;59609;52.430;4.668;2024-01-06T02:01:58;100696.25;;;4.57;100.00
71778;BME280;59609;52.430;4.668;2024-01-06T02:04:23;100682.13;;;4.52;100.00
71778;BME280;59609;52.430;4.668;2024-01-06T02:06:49;100699.00;;;4.57;100.00
71778;BME280;59609;52.430;4.668;2024-01-06T02:09:15;100685.00;;;4.50;100.00
71778;BME280;59609;52.430;4.668;2024-01-06T02:11:40;100691.31;;;4.51;100.00
71778;BME280;59609;52.430;4.668;2024-01-06T02:14:06;100694.78;;;4.53;100.00
71778;BME280;59609;52.430;4.668;2024-01-06T02:16:31;100705.28;;;4.57;100.00
71778;BME280;59609;52.430;4.668;2024-01-06T02:18:56;100710.75;;;4.57;100.00
71778;BME280;59609;52.430;4.668;2024-01-06T02:21:23;100715.94;;;4.60;100.00
71778;BME280;59609;52.430;4.668;2024-01-06T02:23:49;100703.38;;;4.48;100.00
71778;BME280;59609;52.430;4.668;2024-01-06T02:26:14;100711.00;;;4.54;100.00
71778;BME280;59609;52.430;4.668;2024-01-06T02:28:40;100721.06;;;4.54;100.00
71778;BME280;59609;52.430;4.668;2024-01-06T02:31:05;100722.47;;;4.48;100.00
71778;BME280;59609;52.430;4.668;2024-01-06T02:33:31;100735.03;;;4.60;100.00
71778;BME280;59609;52.430;4.668;2024-01-06T02:35:56;100723.78;;;4.54;100.00
71778;BME280;59609;52.430;4.668;2024-01-06T02:38:22;100715.94;;;4.40;100.00
71778;BME280;59609;52.430;4.668;2024-01-06T02:40:47;100760.13;;;4.54;100.00
71778;BME280;59609;52.430;4.668;2024-01-06T02:43:12;100752.06;;;4.53;100.00
71778;BME280;59609;52.430;4.668;2024-01-06T02:45:38;100746.81;;;4.40;100.00
71778;BME280;59609;52.430;4.668;2024-01-06T02:48:03;100765.84;;;4.51;100.00
71778;BME280;59609;52.430;4.668;2024-01-06T02:50:29;100755.19;;;4.48;100.00
71778;BME280;59609;52.430;4.668;2024-01-06T02:52:54;100762.22;;;4.51;100.00
71778;BME280;59609;52.430;4.668;2024-01-06T02:55:20;100752.59;;;4.47;100.00
71778;BME280;59609;52.430;4.668;2024-01-06T02:57:45;100765.97;;;4.50;100.00
71778;BME280;59609;52.430;4.668;2024-01-06T03:00:11;100769.69;;;4.49;100.00
71778;BME280;59609;52.430;4.668;2024-01-06T03:02:38;100785.34;;;4.47;100.00
71778;BME280;59609;52.430;4.668;2024-01-06T03:05:07;100767.16;;;4.36;100.00
71778;BME280;59609;52.430;4.668;2024-01-06T03:07:32;100780.97;;;4.44;100.00
71778;BME280;59609;52.430;4.668;2024-01-06T03:09:58;100784.47;;;4.46;100.00
71778;BME280;59609;52.430;4.668;2024-01-06T03:12:23;100776.81;;;4.40;100.00
71778;BME280;59609;52.430;4.668;2024-01-06T03:14:48;100787.72;;;4.40;100.00
71778;BME280;59609;52.430;4.668;2024-01-06T03:17:14;100788.28;;;4.44;100.00
71778;BME280;59609;52.430;4.668;2024-01-06T03:19:39;100763.97;;;4.20;100.00
71778;BME280;59609;52.430;4.668;2024-01-06T03:22:04;100789.69;;;4.38;100.00
71778;BME280;59609;52.430;4.668;2024-01-06T03:24:30;100796.88;;;4.39;100.00
71778;BME280;59609;52.430;4.668;2024-01-06T03:26:56;100799.63;;;4.39;100.00
71778;BME280;59609;52.430;4.668;2024-01-06T03:29:22;100796.00;;;4.39;100.00
71778;BME280;59609;52.430;4.668;2024-01-06T03:31:47;100802.34;;;4.39;100.00
71778;BME280;59609;52.430;4.668;2024-01-06T03:34:12;100811.03;;;4.33;100.00
71778;BME280;59609;52.430;4.668;2024-01-06T03:36:38;100819.31;;;4.43;100.00
71778;BME280;59609;52.430;4.668;2024-01-06T03:39:04;100811.53;;;4.27;100.00
71778;BME280;59609;52.430;4.668;2024-01-06T03:41:30;100826.00;;;4.39;100.00
71778;BME280;59609;52.430;4.668;2024-01-06T03:43:55;100815.88;;;4.30;100.00
71778;BME280;59609;52.430;4.668;2024-01-06T03:46:21;100831.72;;;4.36;100.00
71778;BME280;59609;52.430;4.668;2024-01-06T03:48:47;100836.19;;;4.37;100.00
71778;BME280;59609;52.430;4.668;2024-01-06T03:51:12;100833.84;;;4.32;100.00
71778;BME280;59609;52.430;4.668;2024-01-06T03:53:38;100826.38;;;4.34;100.00
71778;BME280;59609;52.430;4.668;2024-01-06T03:56:04;100831.38;;;4.29;100.00
71778;BME280;59609;52.430;4.668;2024-01-06T03:58:29;100826.19;;;4.26;100.00
71778;BME280;59609;52.430;4.668;2024-01-06T04:00:55;100829.50;;;4.30;100.00
71778;BME280;59609;52.430;4.668;2024-01-06T04:03:20;100838.56;;;4.30;100.00
71778;BME280;59609;52.430;4.668;2024-01-06T04:05:46;100839.81;;;4.26;100.00
71778;BME280;59609;52.430;4.668;2024-01-06T04:08:11;100850.47;;;4.29;100.00
71778;BME280;59609;52.430;4.668;2024-01-06T04:10:36;100847.47;;;4.21;100.00
71778;BME280;59609;52.430;4.668;2024-01-06T04:13:02;100853.56;;;4.25;100.00
71778;BME280;59609;52.430;4.668;2024-01-06T04:15:27;100832.88;;;4.11;100.00
71778;BME280;59609;52.430;4.668;2024-01-06T04:17:54;100852.22;;;4.19;100.00
71778;BME280;59609;52.430;4.668;2024-01-06T04:20:19;100850.72;;;4.15;100.00
71778;BME280;59609;52.430;4.668;2024-01-06T04:22:45;100853.81;;;4.22;100.00
71778;BME280;59609;52.430;4.668;2024-01-06T04:25:10;100876.25;;;4.25;100.00
71778;BME280;59609;52.430;4.668;2024-01-06T04:27:35;100869.03;;;4.24;100.00
71778;BME280;59609;52.430;4.668;2024-01-06T04:30:01;100876.84;;;4.29;100.00
71778;BME280;59609;52.430;4.668;2024-01-06T04:32:27;100867.44;;;4.22;100.00
71778;BME280;59609;52.430;4.668;2024-01-06T04:34:52;100870.16;;;4.22;100.00
71778;BME280;59609;52.430;4.668;2024-01-06T04:37:17;100887.88;;;4.27;100.00
71778;BME280;59609;52.430;4.668;2024-01-06T04:39:43;100888.28;;;4.23;100.00
71778;BME280;59609;52.430;4.668;2024-01-06T04:42:08;100875.50;;;4.12;100.00
71778;BME280;59609;52.430;4.668;2024-01-06T04:44:33;100895.31;;;4.14;100.00
71778;BME280;59609;52.430;4.668;2024-01-06T04:46:59;100893.09;;;4.08;100.00
71778;BME280;59609;52.430;4.668;2024-01-06T04:49:24;100891.50;;;4.05;100.00
71778;BME280;59609;52.430;4.668;2024-01-06T04:51:49;100894.97;;;4.07;100.00
71778;BME280;59609;52.430;4.668;2024-01-06T04:54:15;100887.19;;;4.03;100.00
71778;BME280;59609;52.430;4.668;2024-01-06T04:56:40;100895.97;;;4.06;100.00
71778;BME280;59609;52.430;4.668;2024-01-06T04:59:05;100906.22;;;4.14;100.00
71778;BME280;59609;52.430;4.668;2024-01-06T05:01:31;100897.69;;;4.07;100.00
71778;BME280;59609;52.430;4.668;2024-01-06T05:03:57;100889.66;;;4.06;100.00
71778;BME280;59609;52.430;4.668;2024-01-06T05:06:23;100896.09;;;4.05;100.00
71778;BME280;59609;52.430;4.668;2024-01-06T05:08:48;100920.88;;;4.13;100.00
71778;BME280;59609;52.430;4.668;2024-01-06T05:11:14;100909.22;;;4.11;100.00
71778;BME280;59609;52.430;4.668;2024-01-06T05:13:39;100899.69;;;4.05;100.00
71778;BME280;59609;52.430;4.668;2024-01-06T05:16:05;100913.94;;;4.09;100.00
71778;BME280;59609;52.430;4.668;2024-01-06T05:18:30;100918.50;;;4.08;100.00
71778;BME280;59609;52.430;4.668;2024-01-06T05:20:56;100923.59;;;4.13;100.00
71778;BME280;59609;52.430;4.668;2024-01-06T05:23:22;100922.22;;;4.07;100.00
71778;BME280;59609;52.430;4.668;2024-01-06T05:25:47;100916.16;;;4.04;100.00
71778;BME280;59609;52.430;4.668;2024-01-06T05:28:12;100913.81;;;3.99;100.00
71778;BME280;59609;52.430;4.668;2024-01-06T05:30:38;100917.66;;;3.97;100.00
71778;BME280;59609;52.430;4.668;2024-01-06T05:33:03;100936.50;;;4.00;100.00
71778;BME280;59609;52.430;4.668;2024-01-06T05:35:29;100937.22;;;4.02;100.00
71778;BME280;59609;52.430;4.668;2024-01-06T05:37:54;100946.28;;;4.02;100.00
71778;BME280;59609;52.430;4.668;2024-01-06T05:40:20;100962.22;;;4.07;100.00
71778;BME280;59609;52.430;4.668;2024-01-06T05:42:45;100964.97;;;4.07;100.00
71778;BME280;59609;52.430;4.668;2024-01-06T05:45:11;100959.50;;;4.07;100.00
71778;BME280;59609;52.430;4.668;2024-01-06T05:47:38;100962.72;;;4.01;100.00
71778;BME280;59609;52.430;4.668;2024-01-06T05:50:04;100959.28;;;3.99;100.00
71778;BME280;59609;52.430;4.668;2024-01-06T05:52:29;100973.75;;;4.10;100.00
71778;BME280;59609;52.430;4.668;2024-01-06T05:54:54;100981.22;;;4.08;100.00
71778;BME280;59609;52.430;4.668;2024-01-06T05:57:20;100951.44;;;3.94;100.00
71778;BME280;59609;52.430;4.668;2024-01-06T05:59:45;100974.88;;;4.08;100.00
71778;BME280;59609;52.430;4.668;2024-01-06T06:02:10;100992.22;;;4.07;100.00
71778;BME280;59609;52.430;4.668;2024-01-06T06:04:36;100993.00;;;4.09;100.00
71778;BME280;59609;52.430;4.668;2024-01-06T06:07:01;100996.22;;;4.03;100.00
71778;BME280;59609;52.430;4.668;2024-01-06T06:09:27;101000.41;;;4.07;100.00
71778;BME280;59609;52.430;4.668;2024-01-06T06:11:54;100998.41;;;3.98;100.00
71778;BME280;59609;52.430;4.668;2024-01-06T06:14:19;101005.38;;;4.02;100.00
71778;BME280;59609;52.430;4.668;2024-01-06T06:16:44;101008.72;;;4.05;100.00
71778;BME280;59609;52.430;4.668;2024-01-06T06:19:10;101006.88;;;4.06;100.00
71778;BME280;59609;52.430;4.668;2024-01-06T06:21:35;101022.97;;;4.09;100.00
71778;BME280;59609;52.430;4.668;2024-01-06T06:24:01;101019.38;;;4.08;100.00
71778;BME280;59609;52.430;4.668;2024-01-06T06:26:28;101014.03;;;4.07;100.00
71778;BME280;59609;52.430;4.668;2024-01-06T06:28:53;101019.88;;;4.02;100.00
71778;BME280;59609;52.430;4.668;2024-01-06T06:31:19;101036.84;;;4.06;100.00
71778;BME280;59609;52.430;4.668;2024-01-06T06:33:44;101040.69;;;4.03;100.00
71778;BME280;59609;52.430;4.668;2024-01-06T06:36:10;101038.56;;;3.96;100.00
71778;BME280;59609;52.430;4.668;2024-01-06T06:38:35;101038.31;;;3.99;100.00
71778;BME280;59609;52.430;4.668;2024-01-06T06:41:01;101023.78;;;3.87;100.00
71778;BME280;59609;52.430;4.668;2024-01-06T06:43:26;101039.53;;;3.95;100.00
71778;BME280;59609;52.430;4.668;2024-01-06T06:45:52;101017.94;;;3.81;100.00
71778;BME280;59609;52.430;4.668;2024-01-06T06:48:18;101048.69;;;3.94;100.00
71778;BME280;59609;52.430;4.668;2024-01-06T06:50:43;101048.19;;;3.89;100.00
71778;BME280;59609;52.430;4.668;2024-01-06T06:53:09;101060.13;;;3.99;100.00
71778;BME280;59609;52.430;4.668;2024-01-06T06:55:34;101062.13;;;3.97;100.00
71778;BME280;59609;52.430;4.668;2024-01-06T06:57:59;101066.44;;;3.99;100.00
71778;BME280;59609;52.430;4.668;2024-01-06T07:00:25;101072.78;;;4.00;100.00
71778;BME280;59609;52.430;4.668;2024-01-06T07:02:50;101063.56;;;3.90;100.00
71778;BME280;59609;52.430;4.668;2024-01-06T07:05:16;101076.97;;;3.93;100.00
71778;BME280;59609;52.430;4.668;2024-01-06T07:07:42;101069.53;;;3.95;100.00
71778;BME280;59609;52.430;4.668;2024-01-06T07:10:12;101091.22;;;3.96;100.00
71778;BME280;59609;52.430;4.668;2024-01-06T07:12:37;101085.25;;;3.91;100.00
71778;BME280;59609;52.430;4.668;2024-01-06T07:15:02;101086.84;;;3.94;100.00
71778;BME280;59609;52.430;4.668;2024-01-06T07:17:28;101089.56;;;3.94;100.00
71778;BME280;59609;52.430;4.668;2024-01-06T07:19:54;101090.81;;;3.90;100.00
71778;BME280;59609;52.430;4.668;2024-01-06T07:22:20;101100.63;;;3.92;100.00
71778;BME280;59609;52.430;4.668;2024-01-06T07:24:45;101097.34;;;3.87;100.00
71778;BME280;59609;52.430;4.668;2024-01-06T07:27:11;101109.66;;;3.93;100.00
71778;BME280;59609;52.430;4.668;2024-01-06T07:29:37;101114.88;;;3.96;100.00
71778;BME280;59609;52.430;4.668;2024-01-06T07:32:04;101132.22;;;3.95;100.00
71778;BME280;59609;52.430;4.668;2024-01-06T07:34:29;101136.69;;;3.96;100.00
71778;BME280;59609;52.430;4.668;2024-01-06T07:36:55;101111.47;;;3.81;100.00
71778;BME280;59609;52.430;4.668;2024-01-06T07:39:20;101142.84;;;3.87;100.00
71778;BME280;59609;52.430;4.668;2024-01-06T07:41:45;101128.59;;;3.83;100.00
71778;BME280;59609;52.430;4.668;2024-01-06T07:44:14;101142.72;;;3.88;100.00
71778;BME280;59609;52.430;4.668;2024-01-06T07:46:41;101117.91;;;3.80;100.00
71778;BME280;59609;52.430;4.668;2024-01-06T07:49:07;101116.28;;;3.78;100.00
71778;BME280;59609;52.430;4.668;2024-01-06T07:51:32;101160.03;;;3.87;100.00
71778;BME280;59609;52.430;4.668;2024-01-06T07:54:00;101111.88;;;3.64;100.00
71778;BME280;59609;52.430;4.668;2024-01-06T07:56:26;101136.56;;;3.74;100.00
71778;BME280;59609;52.430;4.668;2024-01-06T07:58:52;101159.31;;;3.85;100.00
71778;BME280;59609;52.430;4.668;2024-01-06T08:01:20;101175.56;;;3.87;100.00
71778;BME280;59609;52.430;4.668;2024-01-06T08:03:45;101163.47;;;3.78;100.00
71778;BME280;59609;52.430;4.668;2024-01-06T08:06:11;101180.00;;;3.88;100.00
71778;BME280;59609;52.430;4.668;2024-01-06T08:08:36;101171.31;;;3.83;100.00
71778;BME280;59609;52.430;4.668;2024-01-06T08:11:01;101189.91;;;3.89;100.00
71778;BME280;59609;52.430;4.668;2024-01-06T08:13:27;101195.59;;;3.86;100.00
71778;BME280;59609;52.430;4.668;2024-01-06T08:15:52;101201.06;;;3.86;100.00
71778;BME280;59609;52.430;4.668;2024-01-06T08:18:18;101194.50;;;3.88;100.00
71778;BME280;59609;52.430;4.668;2024-01-06T08:20:43;101190.63;;;3.80;100.00
71778;BME280;59609;52.430;4.668;2024-01-06T08:23:09;101211.06;;;3.85;100.00
71778;BME280;59609;52.430;4.668;2024-01-06T08:25:35;101210.38;;;3.94;100.00
71778;BME280;59609;52.430;4.668;2024-01-06T08:28:01;101194.09;;;3.82;100.00
71778;BME280;59609;52.430;4.668;2024-01-06T08:30:26;101213.69;;;3.87;100.00
71778;BME280;59609;52.430;4.668;2024-01-06T08:32:55;101214.94;;;3.94;100.00
71778;BME280;59609;52.430;4.668;2024-01-06T08:35:20;101217.25;;;4.00;100.00
71778;BME280;59609;52.430;4.668;2024-01-06T08:37:45;101215.19;;;3.91;100.00
71778;BME280;59609;52.430;4.668;2024-01-06T08:40:11;101212.34;;;3.92;100.00
71778;BME280;59609;52.430;4.668;2024-01-06T08:42:37;101205.16;;;3.91;100.00
71778;BME280;59609;52.430;4.668;2024-01-06T08:45:03;101228.47;;;3.95;100.00
71778;BME280;59609;52.430;4.668;2024-01-06T08:47:30;101235.31;;;4.01;100.00
71778;BME280;59609;52.430;4.668;2024-01-06T08:49:55;101241.69;;;3.89;100.00
71778;BME280;59609;52.430;4.668;2024-01-06T08:52:21;101251.81;;;3.99;100.00
71778;BME280;59609;52.430;4.668;2024-01-06T08:54:46;101196.91;;;3.56;100.00
71778;BME280;59609;52.430;4.668;2024-01-06T08:57:20;101221.63;;;3.66;100.00
71778;BME280;59609;52.430;4.668;2024-01-06T08:59:45;101217.78;;;3.69;100.00
71778;BME280;59609;52.430;4.668;2024-01-06T09:02:11;101239.34;;;3.72;100.00
71778;BME280;59609;52.430;4.668;2024-01-06T09:04:36;101200.06;;;3.50;100.00
71778;BME280;59609;52.430;4.668;2024-01-06T09:07:02;101250.97;;;3.86;100.00
71778;BME280;59609;52.430;4.668;2024-01-06T09:09:27;101245.13;;;3.80;100.00
71778;BME280;59609;52.430;4.668;2024-01-06T09:11:53;101263.03;;;3.95;100.00
71778;BME280;59609;52.430;4.668;2024-01-06T09:14:21;101234.78;;;3.72;100.00
71778;BME280;59609;52.430;4.668;2024-01-06T09:16:47;101256.94;;;3.91;100.00
71778;BME280;59609;52.430;4.668;2024-01-06T09:19:12;101282.59;;;4.12;100.00
71778;BME280;59609;52.430;4.668;2024-01-06T09:21:37;101259.84;;;4.01;100.00
71778;BME280;59609;52.430;4.668;2024-01-06T09:24:03;101277.25;;;4.11;100.00
71778;BME280;59609;52.430;4.668;2024-01-06T09:26:34;101240.06;;;3.86;100.00
71778;BME280;59609;52.430;4.668;2024-01-06T09:29:00;101295.78;;;4.19;100.00
71778;BME280;59609;52.430;4.668;2024-01-06T09:31:26;101250.47;;;4.05;100.00
71778;BME280;59609;52.430;4.668;2024-01-06T09:33:53;101291.69;;;4.37;100.00
71778;BME280;59609;52.430;4.668;2024-01-06T09:36:19;101285.44;;;4.35;100.00
71778;BME280;59609;52.430;4.668;2024-01-06T09:38:44;101286.63;;;4.43;100.00
71778;BME280;59609;52.430;4.668;2024-01-06T09:41:10;101282.84;;;4.57;100.00
71778;BME280;59609;52.430;4.668;2024-01-06T09:43:36;101304.78;;;4.55;100.00
71778;BME280;59609;52.430;4.668;2024-01-06T09:46:25;101308.22;;;4.57;100.00
71778;BME280;59609;52.430;4.668;2024-01-06T09:48:52;101303.38;;;4.50;100.00
71778;BME280;59609;52.430;4.668;2024-01-06T09:51:19;101315.44;;;4.35;100.00
71778;BME280;59609;52.430;4.668;2024-01-06T09:53:49;101325.25;;;4.37;100.00
71778;BME280;59609;52.430;4.668;2024-01-06T09:56:18;101312.31;;;4.28;100.00
71778;BME280;59609;52.430;4.668;2024-01-06T09:58:44;101332.59;;;4.37;100.00
71778;BME280;59609;52.430;4.668;2024-01-06T10:01:10;101290.31;;;4.19;100.00
71778;BME280;59609;52.430;4.668;2024-01-06T10:03:37;101339.28;;;4.44;100.00
71778;BME280;59609;52.430;4.668;2024-01-06T10:06:02;101339.66;;;4.39;100.00
71778;BME280;59609;52.430;4.668;2024-01-06T10:08:32;101336.75;;;4.30;100.00
71778;BME280;59609;52.430;4.668;2024-01-06T10:11:00;101342.94;;;4.32;100.00
71778;BME280;59609;52.430;4.668;2024-01-06T10:13:26;101330.06;;;4.34;100.00
71778;BME280;59609;52.430;4.668;2024-01-06T10:15:52;101350.09;;;4.45;100.00
71778;BME280;59609;52.430;4.668;2024-01-06T10:18:19;101355.31;;;4.48;100.00
71778;BME280;59609;52.430;4.668;2024-01-06T10:20:45;101340.94;;;4.46;100.00
71778;BME280;59609;52.430;4.668;2024-01-06T10:23:13;101342.97;;;4.55;100.00
71778;BME280;59609;52.430;4.668;2024-01-06T10:25:38;101345.78;;;4.54;100.00
71778;BME280;59609;52.430;4.668;2024-01-06T10:28:04;101353.66;;;4.58;100.00
71778;BME280;59609;52.430;4.668;2024-01-06T10:30:30;101335.88;;;4.53;100.00
71778;BME280;59609;52.430;4.668;2024-01-06T10:32:55;101353.13;;;4.53;100.00
71778;BME280;59609;52.430;4.668;2024-01-06T10:35:20;101364.72;;;4.68;100.00
71778;BME280;59609;52.430;4.668;2024-01-06T10:37:47;101350.09;;;4.69;100.00
71778;BME280;59609;52.430;4.668;2024-01-06T10:40:15;101325.03;;;4.40;100.00
71778;BME280;59609;52.430;4.668;2024-01-06T10:42:44;101364.78;;;4.55;100.00
71778;BME280;59609;52.430;4.668;2024-01-06T10:45:13;101331.25;;;4.42;100.00
71778;BME280;59609;52.430;4.668;2024-01-06T10:47:41;101353.31;;;4.63;100.00
71778;BME280;59609;52.430;4.668;2024-01-06T10:50:07;101362.94;;;5.14;100.00
71778;BME280;59609;52.430;4.668;2024-01-06T10:52:34;101367.13;;;5.53;100.00
71778;BME280;59609;52.430;4.668;2024-01-06T10:55:01;101361.81;;;5.85;100.00
71778;BME280;59609;52.430;4.668;2024-01-06T10:57:29;101364.91;;;5.69;100.00
71778;BME280;59609;52.430;4.668;2024-01-06T10:59:58;101362.78;;;5.62;100.00
71778;BME280;59609;52.430;4.668;2024-01-06T11:02:24;101361.16;;;5.48;100.00
71778;BME280;59609;52.430;4.668;2024-01-06T11:04:51;101341.50;;;5.32;100.00
71778;BME280;59609;52.430;4.668;2024-01-06T11:07:19;101373.56;;;5.41;100.00
71778;BME280;59609;52.430;4.668;2024-01-06T11:09:50;101342.31;;;5.10;100.00
71778;BME280;59609;52.430;4.668;2024-01-06T11:12:18;101375.34;;;5.18;100.00
71778;BME280;59609;52.430;4.668;2024-01-06T11:14:44;101392.13;;;5.25;100.00
71778;BME280;59609;52.430;4.668;2024-01-06T11:17:11;101377.25;;;5.29;100.00
71778;BME280;59609;52.430;4.668;2024-01-06T11:22:29;101387.78;;;5.23;100.00
71778;BME280;59609;52.430;4.668;2024-01-06T11:25:09;101374.72;;;5.15;100.00
71778;BME280;59609;52.430;4.668;2024-01-06T11:27:38;101386.91;;;5.22;100.00
71778;BME280;59609;52.430;4.668;2024-01-06T11:30:05;101378.44;;;5.14;100.00
71778;BME280;59609;52.430;4.668;2024-01-06T11:32:39;101385.44;;;5.29;100.00
71778;BME280;59609;52.430;4.668;2024-01-06T11:35:07;101388.81;;;5.33;100.00
71778;BME280;59609;52.430;4.668;2024-01-06T11:40:33;101393.00;;;5.26;100.00
71778;BME280;59609;52.430;4.668;2024-01-06T11:43:10;101402.50;;;5.09;100.00
71778;BME280;59609;52.430;4.668;2024-01-06T11:45:38;101398.22;;;4.94;100.00
71778;BME280;59609;52.430;4.668;2024-01-06T11:48:07;101397.81;;;4.87;100.00
71778;BME280;59609;52.430;4.668;2024-01-06T11:50:34;101402.13;;;4.79;100.00
71778;BME280;59609;52.430;4.668;2024-01-06T11:53:00;101401.16;;;4.80;100.00
71778;BME280;59609;52.430;4.668;2024-01-06T11:55:26;101418.59;;;4.77;100.00
71778;BME280;59609;52.430;4.668;2024-01-06T11:58:03;101404.34;;;4.74;100.00
71778;BME280;59609;52.430;4.668;2024-01-06T12:00:29;101405.66;;;4.68;100.00
71778;BME280;59609;52.430;4.668;2024-01-06T12:02:56;101397.31;;;4.82;100.00
71778;BME280;59609;52.430;4.668;2024-01-06T12:05:22;101381.97;;;4.68;100.00
71778;BME280;59609;52.430;4.668;2024-01-06T12:08:00;101389.59;;;4.52;100.00
71778;BME280;59609;52.430;4.668;2024-01-06T12:10:27;101411.69;;;4.60;100.00
71778;BME280;59609;52.430;4.668;2024-01-06T12:13:01;101421.84;;;4.58;100.00
71778;BME280;59609;52.430;4.668;2024-01-06T12:15:31;101394.44;;;4.36;100.00
71778;BME280;59609;52.430;4.668;2024-01-06T12:17:57;101419.69;;;4.51;100.00
71778;BME280;59609;52.430;4.668;2024-01-06T12:20:24;101423.72;;;4.58;100.00
71778;BME280;59609;52.430;4.668;2024-01-06T12:22:54;101430.69;;;4.62;100.00
71778;BME280;59609;52.430;4.668;2024-01-06T12:25:25;101422.97;;;4.56;100.00
71778;BME280;59609;52.430;4.668;2024-01-06T12:27:52;101433.25;;;4.52;100.00
71778;BME280;59609;52.430;4.668;2024-01-06T12:30:20;101425.28;;;4.49;100.00
71778;BME280;59609;52.430;4.668;2024-01-06T12:32:46;101424.22;;;4.39;100.00
71778;BME280;59609;52.430;4.668;2024-01-06T12:35:12;101410.91;;;4.35;100.00
71778;BME280;59609;52.430;4.668;2024-01-06T12:37:39;101427.22;;;4.47;100.00
71778;BME280;59609;52.430;4.668;2024-01-06T12:40:05;101415.06;;;4.40;100.00
71778;BME280;59609;52.430;4.668;2024-01-06T12:42:31;101423.66;;;4.34;100.00
71778;BME280;59609;52.430;4.668;2024-01-06T12:44:56;101393.38;;;4.26;100.00
71778;BME280;59609;52.430;4.668;2024-01-06T12:47:21;101408.69;;;4.52;100.00
71778;BME280;59609;52.430;4.668;2024-01-06T12:49:48;101427.16;;;4.73;100.00